Time;durP1;ratioP1;P1;durP2;ratioP2;P2;SDS_P1;SDS_P2;PMS_P1;PMS_P2;Temp;Humidity;BMP_temperature;BMP_pressure;BME280_temperature;BME280_humidity;BME280_pressure;Samples;Min_cycle;Max_cycle;Signal;HPM_P1;HPM_P2
2022/05/08 00:00:54;;;;;;;4.20;3.90;;;20.30;63.30;;;;;;4956539;28;20188;-70
2022/05/08 00:03:20;;;;;;;4.13;3.83;;;20.30;63.20;;;;;;4956249;28;20205;-70
2022/05/08 00:05:45;;;;;;;4.55;4.20;;;20.30;63.30;;;;;;4972558;28;20341;-70
2022/05/08 00:08:13;;;;;;;5.15;4.75;;;20.30;63.20;;;;;;4972562;28;20204;-70
2022/05/08 00:10:40;;;;;;;4.78;4.45;;;20.30;63.20;;;;;;4973776;28;20693;-70
2022/05/08 00:13:09;;;;;;;5.78;5.18;;;20.30;63.20;;;;;;4972300;28;20192;-70
2022/05/08 00:15:35;;;;;;;5.15;4.75;;;20.30;63.20;;;;;;4956514;28;20217;-70
2022/05/08 00:18:02;;;;;;;5.70;5.20;;;20.30;63.10;;;;;;4972713;28;20531;-69
2022/05/08 00:20:29;;;;;;;5.97;5.47;;;20.30;63.10;;;;;;4972351;28;20178;-69
2022/05/08 00:22:55;;;;;;;5.85;5.35;;;20.30;63.00;;;;;;4955996;28;20244;-69
2022/05/08 00:25:21;;;;;;;5.70;5.18;;;20.30;63.10;;;;;;4972455;28;20186;-69
2022/05/08 00:27:47;;;;;;;5.43;5.00;;;20.30;63.00;;;;;;4956292;28;20264;-70
2022/05/08 00:30:13;;;;;;;4.90;4.60;;;20.30;63.00;;;;;;4956423;28;20193;-70
2022/05/08 00:32:39;;;;;;;4.45;4.07;;;20.30;62.90;;;;;;4956385;28;20228;-68
2022/05/08 00:35:09;;;;;;;4.32;3.92;;;20.30;63.00;;;;;;4972615;28;20217;-69
2022/05/08 00:37:37;;;;;;;4.53;4.13;;;20.30;63.00;;;;;;4989099;28;20240;-69
2022/05/08 00:40:03;;;;;;;4.50;4.10;;;20.20;62.90;;;;;;4972664;28;20213;-70
2022/05/08 00:42:29;;;;;;;4.18;3.85;;;20.30;62.90;;;;;;4973788;28;20184;-69
2022/05/08 00:44:54;;;;;;;4.25;3.95;;;20.30;62.90;;;;;;4972333;28;20217;-69
2022/05/08 00:47:20;;;;;;;4.40;4.10;;;20.30;62.90;;;;;;4956771;28;20670;-69
2022/05/08 00:49:46;;;;;;;3.47;3.28;;;20.20;62.80;;;;;;4956680;28;20244;-70
2022/05/08 00:52:15;;;;;;;4.40;4.10;;;20.30;62.90;;;;;;4956413;28;20222;-70
2022/05/08 00:54:41;;;;;;;4.25;3.90;;;20.20;62.80;;;;;;4955952;28;20285;-69
2022/05/08 00:57:10;;;;;;;4.25;3.92;;;20.20;62.80;;;;;;4956678;28;20288;-69
2022/05/08 00:59:35;;;;;;;4.82;4.47;;;20.20;62.70;;;;;;4972831;28;20201;-69
2022/05/08 01:02:03;;;;;;;5.05;4.65;;;20.20;62.70;;;;;;4972325;28;20260;-70
2022/05/08 01:04:30;;;;;;;5.18;4.78;;;20.20;62.60;;;;;;4973531;28;20297;-70
2022/05/08 01:06:56;;;;;;;6.28;5.68;;;20.20;62.70;;;;;;4972225;28;20232;-70
2022/05/08 01:09:22;;;;;;;5.90;5.40;;;20.20;62.60;;;;;;4972559;28;20224;-69
2022/05/08 01:11:48;;;;;;;5.13;4.72;;;20.20;62.60;;;;;;4972255;28;20232;-70
2022/05/08 01:14:14;;;;;;;5.75;5.20;;;20.20;62.60;;;;;;4972104;28;20221;-69
2022/05/08 01:16:40;;;;;;;5.38;4.97;;;20.20;62.60;;;;;;4956077;28;20193;-70
2022/05/08 01:19:06;;;;;;;5.07;4.68;;;20.20;62.60;;;;;;4972119;28;20190;-69
2022/05/08 01:21:41;;;;;;;5.35;4.95;;;20.20;62.60;;;;;;4972226;28;20192;-69
2022/05/08 01:24:09;;;;;;;4.47;4.18;;;20.20;62.50;;;;;;4971846;28;20220;-69
2022/05/08 01:26:35;;;;;;;4.88;3.97;;;20.20;62.50;;;;;;4956319;28;20213;-70
2022/05/08 01:29:03;;;;;;;3.78;3.58;;;20.20;62.50;;;;;;4972125;28;20194;-70
2022/05/08 01:31:30;;;;;;;4.15;3.85;;;20.20;62.50;;;;;;4956136;28;20260;-70
2022/05/08 01:33:56;;;;;;;3.90;3.60;;;20.20;62.50;;;;;;4972090;28;20264;-70
2022/05/08 01:36:22;;;;;;;4.68;4.05;;;20.20;62.60;;;;;;4972228;28;20185;-70
2022/05/08 01:38:48;;;;;;;4.18;3.88;;;20.20;62.50;;;;;;4972134;28;20163;-69
2022/05/08 01:41:14;;;;;;;3.90;3.60;;;20.20;62.50;;;;;;4971958;28;20182;-69
2022/05/08 01:43:41;;;;;;;4.20;3.80;;;20.20;62.40;;;;;;4955398;28;20210;-70
2022/05/08 01:46:09;;;;;;;4.32;4.03;;;20.20;62.40;;;;;;4973183;28;20186;-70
2022/05/08 01:48:35;;;;;;;4.93;4.53;;;20.20;62.40;;;;;;4955821;28;20544;-69
2022/05/08 01:51:03;;;;;;;4.57;4.28;;;20.20;62.40;;;;;;4971838;28;20185;-69
2022/05/08 01:53:34;;;;;;;5.20;4.80;;;20.20;62.30;;;;;;4971529;28;20308;-69
2022/05/08 01:56:05;;;;;;;5.15;4.75;;;20.20;62.40;;;;;;4971894;28;20174;-69
2022/05/08 01:58:31;;;;;;;5.13;4.78;;;20.20;62.30;;;;;;4971859;28;20229;-69
2022/05/08 02:00:59;;;;;;;5.82;5.43;;;20.20;62.30;;;;;;4955711;28;20207;-70
2022/05/08 02:03:26;;;;;;;4.97;4.57;;;20.10;62.10;;;;;;4972765;28;20197;-70
2022/05/08 02:05:52;;;;;;;4.75;4.35;;;20.20;62.30;;;;;;4971559;28;20194;-69
2022/05/08 02:08:18;;;;;;;4.80;4.40;;;20.20;62.30;;;;;;4971949;28;20281;-70
2022/05/08 02:10:47;;;;;;;4.10;3.80;;;20.20;62.30;;;;;;4973557;28;20245;-69
2022/05/08 02:13:13;;;;;;;4.13;3.83;;;20.20;62.20;;;;;;4974514;28;20214;-69
2022/05/08 02:15:40;;;;;;;3.80;3.50;;;20.10;62.10;;;;;;4977777;28;20210;-69
2022/05/08 02:18:12;;;;;;;4.18;3.88;;;20.10;62.10;;;;;;4975071;28;20634;-69
2022/05/08 02:20:40;;;;;;;4.43;4.03;;;20.20;62.20;;;;;;4975009;28;20237;-69
2022/05/08 02:23:08;;;;;;;3.88;3.60;;;20.10;62.10;;;;;;4974727;28;20665;-69
2022/05/08 02:25:36;;;;;;;3.97;3.67;;;20.10;62.10;;;;;;4974975;28;20260;-69
2022/05/08 02:28:02;;;;;;;4.10;3.78;;;20.20;62.20;;;;;;4975232;28;20260;-70
2022/05/08 02:30:28;;;;;;;3.95;3.65;;;20.10;62.00;;;;;;4974720;28;20690;-70
2022/05/08 02:32:54;;;;;;;4.03;3.72;;;20.20;62.10;;;;;;4974440;28;20197;-69
2022/05/08 02:35:21;;;;;;;4.35;4.05;;;20.10;62.00;;;;;;4990874;28;20213;-70
2022/05/08 02:37:53;;;;;;;5.00;4.60;;;20.10;62.00;;;;;;4974924;28;20197;-70
2022/05/08 02:40:20;;;;;;;5.18;4.78;;;20.10;62.00;;;;;;4990897;28;20642;-70
2022/05/08 02:42:46;;;;;;;5.40;4.95;;;20.10;61.90;;;;;;4974834;28;20237;-70
2022/05/08 02:45:12;;;;;;;4.68;4.28;;;20.10;61.90;;;;;;4975628;28;20210;-70
2022/05/08 02:47:41;;;;;;;4.82;4.53;;;20.10;62.00;;;;;;4974609;28;20185;-68
2022/05/08 02:50:09;;;;;;;4.38;4.07;;;20.10;61.90;;;;;;4990606;28;20201;-69
2022/05/08 02:52:37;;;;;;;4.00;3.70;;;20.10;61.90;;;;;;4974379;28;20205;-69
2022/05/08 03:00:39;;;;;;;3.72;3.50;;;20.10;61.90;;;;;;4974339;28;20188;-69
2022/05/08 03:03:06;;;;;;;3.80;3.55;;;20.10;61.90;;;;;;4974133;28;20257;-69
2022/05/08 03:05:33;;;;;;;4.05;3.75;;;20.10;61.90;;;;;;4974421;28;20220;-70
2022/05/08 03:07:59;;;;;;;4.13;3.83;;;20.10;61.90;;;;;;4990430;28;20280;-69
2022/05/08 03:10:25;;;;;;;4.47;4.18;;;20.10;61.90;;;;;;4975384;28;20192;-69
2022/05/08 03:12:51;;;;;;;5.03;4.63;;;20.10;61.90;;;;;;4974004;28;20185;-67
2022/05/08 03:15:17;;;;;;;4.80;4.47;;;20.10;61.80;;;;;;4990145;28;20222;-69
2022/05/08 03:17:44;;;;;;;4.70;4.40;;;20.10;61.80;;;;;;4974344;28;20240;-69
2022/05/08 03:20:11;;;;;;;4.60;4.25;;;20.10;61.80;;;;;;4974247;28;20181;-69
2022/05/08 03:22:37;;;;;;;4.75;4.35;;;20.10;61.80;;;;;;4973692;28;20276;-69
2022/05/08 03:25:03;;;;;;;4.72;4.43;;;20.10;61.70;;;;;;4990174;28;20209;-69
2022/05/08 03:27:30;;;;;;;4.90;4.50;;;20.10;61.70;;;;;;4973906;28;20194;-70
2022/05/08 03:29:56;;;;;;;4.35;4.00;;;20.10;61.80;;;;;;4973823;28;20204;-70
2022/05/08 03:32:22;;;;;;;3.95;3.65;;;20.10;61.80;;;;;;4974145;28;20200;-69
2022/05/08 03:34:48;;;;;;;3.58;3.38;;;20.10;61.70;;;;;;4973520;28;20225;-70
2022/05/08 03:37:27;;;;;;;3.58;3.38;;;20.10;61.80;;;;;;5109109;27;20554;-69
2022/05/08 03:39:53;;;;;;;3.70;3.40;;;20.10;61.80;;;;;;5109628;28;20187;-69
2022/05/08 03:42:20;;;;;;;3.83;3.55;;;20.10;61.80;;;;;;5108540;28;20255;-70
2022/05/08 03:44:46;;;;;;;3.67;3.38;;;20.10;61.70;;;;;;5109038;28;20291;-70
2022/05/08 03:47:12;;;;;;;3.70;3.50;;;20.10;61.70;;;;;;5091235;28;20202;-70
2022/05/08 03:49:39;;;;;;;3.28;3.08;;;20.10;61.80;;;;;;5125512;27;20191;-70
2022/05/08 03:52:07;;;;;;;3.80;3.55;;;20.10;61.70;;;;;;5109408;28;20169;-69
2022/05/08 03:54:32;;;;;;;4.07;3.80;;;20.10;61.70;;;;;;5108851;28;20199;-70
2022/05/08 03:56:58;;;;;;;3.70;3.40;;;20.10;61.80;;;;;;5107948;28;20238;-71
2022/05/08 03:59:24;;;;;;;4.30;4.00;;;20.10;61.70;;;;;;5091045;28;20184;-69
2022/05/08 04:01:50;;;;;;;4.15;3.85;;;20.10;61.70;;;;;;5108034;28;20667;-70
2022/05/08 04:04:16;;;;;;;4.53;4.22;;;20.10;61.70;;;;;;5107643;28;20200;-69
2022/05/08 04:06:42;;;;;;;4.20;3.90;;;20.10;61.60;;;;;;5107752;28;20707;-70
2022/05/08 04:09:07;;;;;;;4.80;4.40;;;20.10;61.70;;;;;;5107821;28;20191;-70
2022/05/08 04:11:33;;;;;;;4.13;3.83;;;20.10;61.60;;;;;;5108920;28;20220;-70
2022/05/08 04:13:59;;;;;;;4.38;4.07;;;20.10;61.60;;;;;;5107240;28;20208;-69
2022/05/08 04:16:26;;;;;;;4.18;3.88;;;20.10;61.60;;;;;;5108785;28;20203;-69
2022/05/08 04:18:52;;;;;;;4.30;4.00;;;20.10;61.50;;;;;;5107763;28;20201;-69
2022/05/08 04:21:17;;;;;;;3.97;3.67;;;20.00;61.50;;;;;;5107694;28;20255;-70
2022/05/08 04:26:30;;;;;;;3.78;3.53;;;20.10;61.50;;;;;;5107349;28;20180;-70
2022/05/08 04:28:57;;;;;;;3.97;3.65;;;20.10;61.50;;;;;;5107533;28;20180;-69
2022/05/08 04:31:24;;;;;;;3.85;3.55;;;20.00;61.40;;;;;;5107397;28;20192;-69
2022/05/08 04:33:50;;;;;;;3.72;3.53;;;20.00;61.50;;;;;;5124193;27;20283;-69
2022/05/08 04:36:17;;;;;;;3.72;3.42;;;20.00;61.40;;;;;;5107136;28;20269;-69
2022/05/08 04:38:44;;;;;;;3.70;3.40;;;20.00;62.30;;;;;;5107391;28;20216;-69
2022/05/08 04:41:09;;;;;;;4.03;3.72;;;20.00;61.50;;;;;;5106594;28;20180;-70
2022/05/08 04:43:36;;;;;;;4.03;3.72;;;20.10;61.50;;;;;;5123009;22;20232;-70
2022/05/08 04:46:02;;;;;;;3.97;3.67;;;20.10;61.50;;;;;;5053869;28;20206;-70
2022/05/08 04:48:28;;;;;;;3.80;3.60;;;20.10;61.50;;;;;;5059190;28;20186;-70
2022/05/08 04:50:54;;;;;;;4.50;4.10;;;20.00;62.20;;;;;;5057172;28;20190;-69
2022/05/08 04:53:20;;;;;;;4.50;4.20;;;20.00;61.40;;;;;;5041473;28;20196;-70
2022/05/08 04:55:46;;;;;;;4.35;4.05;;;20.00;61.40;;;;;;5060534;28;20228;-70
2022/05/08 04:58:12;;;;;;;4.25;3.95;;;20.00;61.30;;;;;;5077133;28;20188;-70
2022/05/08 05:00:38;;;;;;;4.55;4.25;;;20.00;61.40;;;;;;5095174;28;20184;-70
2022/05/08 05:03:04;;;;;;;4.95;4.45;;;20.00;61.40;;;;;;5076824;28;20196;-68
2022/05/08 05:05:30;;;;;;;4.38;4.07;;;20.00;61.30;;;;;;5059849;28;20200;-70
2022/05/08 05:07:55;;;;;;;4.55;4.25;;;20.10;61.40;;;;;;5076946;28;20170;-70
2022/05/08 05:10:22;;;;;;;4.35;4.05;;;20.00;61.20;;;;;;5076746;28;20185;-70
2022/05/08 05:12:48;;;;;;;4.18;3.88;;;20.00;61.30;;;;;;5076956;28;20181;-70
2022/05/08 05:15:14;;;;;;;3.80;3.50;;;20.00;61.30;;;;;;5076298;28;20207;-69
2022/05/08 05:17:40;;;;;;;3.55;3.35;;;20.00;61.40;;;;;;5076716;28;20211;-70
2022/05/08 05:20:07;;;;;;;3.63;3.38;;;20.00;61.30;;;;;;5076750;28;20181;-70
2022/05/08 05:22:32;;;;;;;3.63;3.35;;;20.10;61.40;;;;;;5076868;28;20181;-70
2022/05/08 05:24:58;;;;;;;3.40;3.20;;;20.00;61.30;;;;;;5059822;28;20207;-70
2022/05/08 05:27:25;;;;;;;3.45;3.25;;;20.00;61.30;;;;;;5076494;28;20181;-70
2022/05/08 05:29:51;;;;;;;3.85;3.58;;;20.00;61.40;;;;;;5076710;28;20191;-70
2022/05/08 05:32:17;;;;;;;3.40;3.20;;;20.00;61.40;;;;;;5060066;28;20215;-70
2022/05/08 05:34:43;;;;;;;3.85;3.55;;;20.00;61.30;;;;;;5076127;28;20249;-70
2022/05/08 05:37:09;;;;;;;3.30;3.10;;;20.00;61.30;;;;;;5059491;28;20247;-70
2022/05/08 05:39:35;;;;;;;3.55;3.35;;;20.00;61.30;;;;;;5076381;28;20216;-70
2022/05/08 05:42:00;;;;;;;3.70;3.40;;;20.00;61.20;;;;;;5076386;28;20177;-70
2022/05/08 05:44:26;;;;;;;3.63;3.42;;;20.00;61.20;;;;;;5076051;28;20209;-70
2022/05/08 05:49:38;;;;;;;4.13;3.83;;;20.00;61.20;;;;;;5076196;28;20219;-70
2022/05/08 05:52:07;;;;;;;4.72;4.43;;;20.00;61.20;;;;;;5059401;28;20185;-69
2022/05/08 05:54:33;;;;;;;4.60;4.20;;;20.00;61.30;;;;;;5076033;28;20280;-70
2022/05/08 05:56:59;;;;;;;4.60;4.30;;;20.00;61.20;;;;;;5076257;28;20258;-70
2022/05/08 05:59:25;;;;;;;3.95;3.65;;;20.00;61.40;;;;;;5075139;28;20184;-69
2022/05/08 06:01:51;;;;;;;3.72;3.42;;;20.00;61.30;;;;;;5075794;28;20185;-69
2022/05/08 06:04:16;;;;;;;3.88;3.47;;;20.00;61.30;;;;;;5075319;28;20205;-70
2022/05/08 06:06:42;;;;;;;3.20;3.00;;;20.00;61.30;;;;;;5059029;28;20192;-70
2022/05/08 06:09:08;;;;;;;3.45;3.20;;;20.00;61.30;;;;;;5075882;28;20172;-70
2022/05/08 06:11:33;;;;;;;3.30;3.10;;;20.00;61.30;;;;;;5093912;28;20188;-70
2022/05/08 06:13:59;;;;;;;3.17;2.97;;;20.00;61.30;;;;;;5058663;28;20205;-69
2022/05/08 06:16:25;;;;;;;3.50;3.30;;;20.00;61.30;;;;;;5058900;28;20691;-70
2022/05/08 06:18:51;;;;;;;3.15;2.95;;;20.00;61.30;;;;;;5075752;28;20207;-69
2022/05/08 06:21:17;;;;;;;3.70;3.40;;;20.00;61.30;;;;;;5075425;28;20165;-70
2022/05/08 06:23:43;;;;;;;3.35;3.15;;;20.00;61.30;;;;;;5058566;28;20653;-70
2022/05/08 06:26:08;;;;;;;3.63;3.33;;;20.00;61.30;;;;;;5058705;28;20220;-70
2022/05/08 06:28:34;;;;;;;3.63;3.42;;;20.00;61.30;;;;;;5058635;28;20185;-70
2022/05/08 06:31:01;;;;;;;3.17;2.97;;;20.00;61.30;;;;;;5075664;28;20185;-70
2022/05/08 06:33:27;;;;;;;3.55;3.35;;;20.00;61.20;;;;;;5074886;28;20237;-70
2022/05/08 06:35:55;;;;;;;4.20;3.90;;;20.00;61.30;;;;;;5075151;28;20197;-70
2022/05/08 06:38:21;;;;;;;3.72;3.42;;;20.00;61.30;;;;;;5057721;28;20177;-70
2022/05/08 06:40:46;;;;;;;3.38;3.17;;;20.00;61.30;;;;;;5075170;28;20659;-70
2022/05/08 06:43:12;;;;;;;3.88;3.58;;;20.00;61.30;;;;;;5093329;28;20663;-70
2022/05/08 06:45:38;;;;;;;3.60;3.40;;;20.00;61.30;;;;;;5074964;28;20193;-70
2022/05/08 06:48:08;;;;;;;3.20;3.00;;;20.00;62.20;;;;;;5058339;28;20274;-70
2022/05/08 06:50:34;;;;;;;3.80;3.50;;;20.00;61.30;;;;;;5075045;28;20280;-70
2022/05/08 06:53:00;;;;;;;3.22;3.03;;;20.00;61.30;;;;;;5058535;28;20275;-70
2022/05/08 06:55:26;;;;;;;3.58;3.28;;;20.00;61.30;;;;;;5058005;28;20212;-70
2022/05/08 06:57:52;;;;;;;3.40;3.20;;;20.00;61.40;;;;;;5058033;28;20193;-70
2022/05/08 07:03:05;;;;;;;3.28;2.97;;;20.00;61.40;;;;;;5092607;28;20177;-70
2022/05/08 07:05:32;;;;;;;3.10;2.90;;;20.00;61.40;;;;;;5074465;28;20250;-70
2022/05/08 07:07:58;;;;;;;3.30;3.10;;;20.10;61.50;;;;;;5074739;28;20275;-70
2022/05/08 07:10:24;;;;;;;2.95;2.80;;;20.00;61.40;;;;;;5057743;28;20568;-70
2022/05/08 07:12:49;;;;;;;3.03;2.83;;;20.00;61.40;;;;;;5057927;28;20212;-70
2022/05/08 07:15:15;;;;;;;3.42;3.13;;;20.10;61.50;;;;;;5074343;28;20234;-69
2022/05/08 07:17:42;;;;;;;3.20;3.00;;;20.00;61.40;;;;;;5074868;28;20181;-70
2022/05/08 07:20:09;;;;;;;3.22;2.78;;;20.10;61.60;;;;;;5058133;28;20169;-70
2022/05/08 07:22:35;;;;;;;3.20;3.00;;;20.10;61.50;;;;;;5058178;28;20180;-69
2022/05/08 07:25:02;;;;;;;3.20;3.00;;;20.10;61.30;;;;;;5092358;28;20200;-70
2022/05/08 07:27:29;;;;;;;3.83;3.42;;;20.10;61.20;;;;;;5074602;28;20225;-68
2022/05/08 07:29:56;;;;;;;4.13;3.28;;;20.10;61.10;;;;;;5057966;28;20192;-70
2022/05/08 07:32:22;;;;;;;3.25;3.05;;;20.20;61.10;;;;;;5057587;28;20319;-70
2022/05/08 07:37:31;;;;;;;3.97;3.67;;;20.20;61.10;;;;;;5091144;28;20259;-70
2022/05/08 07:39:57;;;;;;;3.67;3.40;;;20.30;61.20;;;;;;5074644;28;20213;-70
2022/05/08 07:42:23;;;;;;;3.50;3.20;;;20.30;61.10;;;;;;5057795;28;20238;-70
2022/05/08 07:44:49;;;;;;;3.70;3.40;;;20.30;61.20;;;;;;5057274;28;20204;-70
2022/05/08 07:47:16;;;;;;;3.17;2.97;;;20.30;61.20;;;;;;5074892;28;20181;-69
2022/05/08 07:49:41;;;;;;;3.55;3.25;;;20.30;61.20;;;;;;5057625;28;20181;-69
2022/05/08 07:52:07;;;;;;;3.58;3.38;;;20.30;61.10;;;;;;5074268;28;20177;-69
2022/05/08 07:54:33;;;;;;;3.97;3.67;;;20.40;61.30;;;;;;5073861;28;20208;-69
2022/05/08 07:56:59;;;;;;;3.60;3.30;;;20.40;61.30;;;;;;5074157;28;20240;-69
2022/05/08 07:59:24;;;;;;;3.80;3.50;;;20.40;61.20;;;;;;5074437;28;20185;-69
2022/05/08 08:01:50;;;;;;;4.93;3.05;;;20.40;61.30;;;;;;5057402;28;20181;-69
2022/05/08 08:04:16;;;;;;;3.90;3.33;;;20.40;61.30;;;;;;5091929;28;20214;-69
2022/05/08 08:06:42;;;;;;;3.58;3.28;;;20.40;61.30;;;;;;5057501;28;20567;-68
2022/05/08 08:09:08;;;;;;;3.40;3.10;;;20.40;61.30;;;;;;5057358;28;20185;-70
2022/05/08 08:11:35;;;;;;;3.40;3.20;;;20.40;61.30;;;;;;5057750;28;20276;-69
2022/05/08 08:14:02;;;;;;;3.65;3.38;;;20.40;61.30;;;;;;5073809;28;20282;-69
2022/05/08 08:16:27;;;;;;;3.20;2.90;;;20.40;61.30;;;;;;5057341;28;20205;-70
2022/05/08 08:18:56;;;;;;;3.25;3.00;;;20.50;61.40;;;;;;5057586;28;20187;-70
2022/05/08 08:21:22;;;;;;;3.35;3.05;;;20.50;61.40;;;;;;5074332;28;20600;-70
2022/05/08 08:23:48;;;;;;;3.83;3.10;;;20.50;61.40;;;;;;5060280;28;20205;-70
2022/05/08 08:26:14;;;;;;;3.35;3.05;;;20.50;61.40;;;;;;5061302;28;20659;-70
2022/05/08 08:28:40;;;;;;;3.40;3.10;;;20.50;61.40;;;;;;5077743;28;20219;-70
2022/05/08 08:31:07;;;;;;;3.60;3.30;;;20.60;61.60;;;;;;5095755;28;20234;-70
2022/05/08 08:33:36;;;;;;;4.55;3.08;;;20.60;61.60;;;;;;5060696;28;20616;-70
2022/05/08 08:36:02;;;;;;;3.72;3.42;;;20.60;61.60;;;;;;5077298;28;20227;-70
2022/05/08 08:38:28;;;;;;;3.58;3.28;;;20.60;61.60;;;;;;5061207;28;20272;-70
2022/05/08 08:40:58;;;;;;;3.85;3.53;;;20.60;61.70;;;;;;5061002;28;20193;-69
2022/05/08 08:43:25;;;;;;;3.97;3.55;;;20.70;61.80;;;;;;5094023;28;20177;-70
2022/05/08 08:48:41;;;;;;;5.82;3.50;;;20.70;61.80;;;;;;5094219;28;20207;-72
2022/05/08 08:51:07;;;;;;;3.78;3.47;;;20.70;62.00;;;;;;5077243;28;20185;-72
2022/05/08 08:53:33;;;;;;;5.90;3.33;;;20.60;62.10;;;;;;5077232;28;20246;-73
2022/05/08 08:56:01;;;;;;;5.75;3.25;;;20.70;62.30;;;;;;5060370;28;20217;-72
2022/05/08 08:58:26;;;;;;;5.00;3.50;;;20.70;62.40;;;;;;5077159;28;20216;-73
2022/05/08 09:00:53;;;;;;;5.95;3.63;;;20.70;62.60;;;;;;5060494;28;20262;-73
2022/05/08 09:03:25;;;;;;;5.45;3.33;;;20.70;62.80;;;;;;5060343;28;20209;-72
2022/05/08 09:06:02;;;;;;;11.38;4.28;;;20.70;63.00;;;;;;5060451;28;20181;-72
2022/05/08 09:08:31;;;;;;;6.80;3.60;;;20.70;63.20;;;;;;5093929;28;20191;-72
2022/05/08 09:10:59;;;;;;;6.45;3.70;;;20.70;63.40;;;;;;5094071;28;20189;-73
2022/05/08 09:13:27;;;;;;;4.70;3.50;;;20.70;63.60;;;;;;5076729;28;20177;-73
2022/05/08 09:16:02;;;;;;;4.88;3.47;;;20.70;63.60;;;;;;5059964;28;20221;-72
2022/05/08 09:18:28;;;;;;;7.03;3.88;;;20.70;63.70;;;;;;5076665;28;20184;-72
2022/05/08 09:21:54;;;;;;;4.75;3.67;;;20.70;63.70;;;;;;5076628;28;20226;-72
2022/05/08 09:23:42;;;;;;;6.30;3.63;;;20.70;63.60;;;;;;5076368;28;20200;-73
2022/05/08 09:26:08;;;;;;;5.57;3.65;;;20.70;63.70;;;;;;5076774;28;20173;-72
2022/05/08 09:28:44;;;;;;;4.95;3.50;;;20.70;63.70;;;;;;5076582;28;20214;-73
2022/05/08 09:31:15;;;;;;;7.35;3.83;;;20.70;63.60;;;;;;5076618;28;20184;-72
2022/05/08 09:33:47;;;;;;;5.10;3.22;;;20.70;63.60;;;;;;5094059;28;20240;-71
2022/05/08 09:36:24;;;;;;;4.60;3.25;;;20.70;63.50;;;;;;5059591;28;20265;-73
2022/05/08 09:38:56;;;;;;;5.32;3.25;;;20.70;63.60;;;;;;5076697;28;20242;-72
2022/05/08 09:41:29;;;;;;;3.75;3.45;;;20.80;63.70;;;;;;5076564;28;20204;-72
2022/05/08 09:44:21;;;;;;;5.97;3.85;;;20.80;63.70;;;;;;5075960;28;20219;-74
2022/05/08 09:46:48;;;;;;;5.40;3.75;;;20.70;63.60;;;;;;5073354;28;20288;-72
2022/05/08 09:49:23;;;;;;;8.18;3.60;;;20.80;63.70;;;;;;5076391;28;20196;-73
2022/05/08 09:51:50;;;;;;;5.68;3.70;;;20.80;63.70;;;;;;5059752;28;20173;-73
2022/05/08 09:54:18;;;;;;;6.70;4.00;;;20.80;63.80;;;;;;5075729;28;20209;-73
2022/05/08 09:56:46;;;;;;;6.53;4.00;;;20.80;63.90;;;;;;5075820;28;20223;-71
2022/05/08 09:59:14;;;;;;;4.72;3.40;;;20.80;63.60;;;;;;5075973;28;20169;-73
2022/05/08 10:01:42;;;;;;;4.03;3.33;;;20.80;63.60;;;;;;5093855;28;20228;-73
2022/05/08 10:04:08;;;;;;;4.80;3.17;;;20.80;63.70;;;;;;5075681;28;20250;-72
2022/05/08 10:06:36;;;;;;;4.40;3.75;;;20.80;63.70;;;;;;5093818;28;20558;-73
2022/05/08 10:14:35;;;;;;;4.10;3.45;;;20.80;63.60;;;;;;5093295;28;20709;-73
2022/05/08 10:17:03;;;;;;;4.63;3.80;;;20.80;63.60;;;;;;5093570;28;20212;-73
2022/05/08 10:19:29;;;;;;;6.97;3.60;;;20.80;63.60;;;;;;5092716;28;20238;-72
2022/05/08 10:22:02;;;;;;;4.57;3.60;;;20.80;63.60;;;;;;5075421;28;20204;-72
2022/05/08 10:24:39;;;;;;;5.50;3.60;;;20.80;63.60;;;;;;5075240;28;20208;-72
2022/05/08 10:27:31;;;;;;;4.95;3.92;;;20.70;63.70;;;;;;5075297;28;20212;-72
2022/05/08 10:29:57;;;;;;;5.15;3.60;;;20.70;63.60;;;;;;5092246;28;20648;-72
2022/05/08 10:32:31;;;;;;;6.13;3.75;;;20.60;63.40;;;;;;5075622;28;20183;-71
2022/05/08 10:35:19;;;;;;;5.13;3.80;;;20.60;63.60;;;;;;5074794;28;20201;-72
2022/05/08 10:38:10;;;;;;;6.13;4.05;;;20.60;63.50;;;;;;5075152;28;20279;-71
2022/05/08 10:40:37;;;;;;;5.72;3.75;;;20.60;63.40;;;;;;5074541;28;20193;-72
2022/05/08 10:43:26;;;;;;;4.10;3.72;;;20.60;63.40;;;;;;5093226;28;20628;-72
2022/05/08 10:45:52;;;;;;;6.15;4.18;;;20.60;63.40;;;;;;5074962;28;20181;-73
2022/05/08 10:48:25;;;;;;;4.28;3.95;;;20.60;63.40;;;;;;5058149;28;20189;-72
2022/05/08 10:50:57;;;;;;;4.30;4.00;;;20.60;63.40;;;;;;5075001;28;20177;-72
2022/05/08 10:53:32;;;;;;;16.65;4.50;;;20.60;63.30;;;;;;5074977;28;20205;-72
2022/05/08 10:56:10;;;;;;;4.20;3.58;;;20.60;63.20;;;;;;5075043;28;20204;-72
2022/05/08 10:58:41;;;;;;;4.95;3.92;;;20.60;63.20;;;;;;5058209;28;20227;-72
2022/05/08 11:01:09;;;;;;;4.65;3.97;;;20.60;63.20;;;;;;5091937;28;20185;-72
2022/05/08 11:03:35;;;;;;;5.50;3.95;;;20.60;63.10;;;;;;5058294;28;20205;-72
2022/05/08 11:06:03;;;;;;;4.28;3.97;;;20.60;63.10;;;;;;5058197;28;20651;-73
2022/05/08 11:08:35;;;;;;;5.53;4.53;;;20.60;63.10;;;;;;5074973;28;20265;-71
2022/05/08 11:11:03;;;;;;;4.35;3.88;;;20.60;63.10;;;;;;5058028;28;20173;-72
2022/05/08 11:13:44;;;;;;;6.03;4.18;;;20.60;63.00;;;;;;5057904;28;20213;-72
2022/05/08 11:16:29;;;;;;;4.63;4.30;;;20.60;63.00;;;;;;5054804;28;20228;-71
2022/05/08 11:18:58;;;;;;;4.25;3.53;;;20.60;62.90;;;;;;5038420;28;20170;-71
2022/05/08 11:21:26;;;;;;;8.43;4.22;;;20.60;62.90;;;;;;5054532;28;20188;-72
2022/05/08 11:23:53;;;;;;;7.28;5.63;;;20.60;62.80;;;;;;5054192;28;20209;-72
2022/05/08 11:26:27;;;;;;;4.03;3.63;;;20.60;62.90;;;;;;5054375;28;20664;-71
2022/05/08 11:28:57;;;;;;;6.05;4.35;;;20.60;63.00;;;;;;5054511;28;20256;-69
2022/05/08 11:31:24;;;;;;;4.65;4.25;;;20.60;62.90;;;;;;5074312;28;20177;-72
2022/05/08 11:36:39;;;;;;;4.75;4.20;;;20.60;62.70;;;;;;5074303;28;20674;-71
2022/05/08 11:39:05;;;;;;;6.65;5.82;;;20.60;62.70;;;;;;5057744;28;20183;-71
2022/05/08 11:41:46;;;;;;;5.47;4.50;;;20.60;62.70;;;;;;5074378;28;20177;-71
2022/05/08 11:44:16;;;;;;;5.70;5.05;;;20.60;62.60;;;;;;5074037;28;20208;-71
2022/05/08 11:46:48;;;;;;;5.95;4.40;;;20.60;62.60;;;;;;5074326;28;20181;-71
2022/05/08 11:49:32;;;;;;;5.20;3.83;;;20.60;62.50;;;;;;5057879;28;20183;-69
2022/05/08 11:52:04;;;;;;;6.45;4.63;;;20.60;62.40;;;;;;5074271;28;20276;-71
2022/05/08 11:54:40;;;;;;;4.55;3.95;;;20.70;62.60;;;;;;5074004;28;20204;-72
2022/05/08 11:57:23;;;;;;;4.50;4.10;;;20.60;62.60;;;;;;5074390;28;20204;-71
2022/05/08 12:00:03;;;;;;;6.90;4.65;;;20.60;62.40;;;;;;5078248;28;20169;-70
2022/05/08 12:02:39;;;;;;;4.57;4.22;;;20.60;62.60;;;;;;5061576;28;20192;-71
2022/05/08 12:05:06;;;;;;;4.95;3.95;;;20.70;62.50;;;;;;5078155;28;20208;-71
2022/05/08 12:07:40;;;;;;;4.72;4.32;;;20.60;62.40;;;;;;5061655;28;20184;-70
2022/05/08 12:10:07;;;;;;;6.05;4.40;;;20.60;62.30;;;;;;5061338;28;20187;-70
2022/05/08 12:12:35;;;;;;;5.35;4.15;;;20.60;62.40;;;;;;5078152;28;20176;-71
2022/05/08 12:15:07;;;;;;;4.82;4.43;;;20.60;62.30;;;;;;5078034;28;20293;-72
2022/05/08 12:17:42;;;;;;;6.40;4.60;;;20.60;62.40;;;;;;5061204;28;20560;-71
2022/05/08 12:20:26;;;;;;;4.35;3.95;;;20.60;62.40;;;;;;5096053;28;20274;-69
2022/05/08 12:23:00;;;;;;;4.90;3.92;;;20.60;62.30;;;;;;5078032;28;20173;-71
2022/05/08 12:25:27;;;;;;;5.32;4.03;;;20.60;62.30;;;;;;5077752;28;20196;-71
2022/05/08 12:27:53;;;;;;;5.38;3.90;;;20.60;62.30;;;;;;5077645;28;20203;-69
2022/05/08 12:30:19;;;;;;;4.45;4.05;;;20.60;62.30;;;;;;5095702;28;20181;-72
2022/05/08 12:32:45;;;;;;;4.95;4.38;;;20.60;62.30;;;;;;5077554;28;20181;-71
2022/05/08 12:35:13;;;;;;;4.80;4.30;;;20.60;62.30;;;;;;5077397;28;20209;-72
2022/05/08 12:37:39;;;;;;;5.13;4.32;;;20.60;62.40;;;;;;5077367;28;20205;-71
2022/05/08 12:40:13;;;;;;;5.10;4.53;;;20.60;62.40;;;;;;5062080;28;20218;-72
2022/05/08 12:42:40;;;;;;;5.38;4.55;;;20.50;62.20;;;;;;5060824;28;20215;-71
2022/05/08 12:45:06;;;;;;;4.85;4.07;;;20.60;62.30;;;;;;5077127;28;20213;-71
2022/05/08 12:47:33;;;;;;;4.47;4.07;;;20.50;62.30;;;;;;5060883;28;20276;-71
2022/05/08 12:49:58;;;;;;;5.60;4.43;;;20.50;62.30;;;;;;5094285;28;20212;-70
2022/05/08 12:52:24;;;;;;;5.63;4.43;;;20.50;62.30;;;;;;5060754;28;20216;-72
2022/05/08 12:54:50;;;;;;;5.07;4.20;;;20.60;62.30;;;;;;5077162;28;20200;-71
2022/05/08 12:59:42;;;;;;;6.05;4.05;;;20.50;62.20;;;;;;5060281;28;20216;-71
2022/05/08 13:00:04;;;;;;;4.78;4.38;;;20.50;62.30;;;;;;5095074;28;20230;-71
2022/05/08 13:02:30;;;;;;;4.72;4.22;;;20.50;62.10;;;;;;5077067;28;20185;-71
2022/05/08 13:04:56;;;;;;;6.38;4.80;;;20.50;62.20;;;;;;5059948;28;20197;-69
2022/05/08 13:07:21;;;;;;;5.35;4.85;;;20.60;62.30;;;;;;5077236;28;20638;-71
2022/05/08 13:09:47;;;;;;;4.70;4.30;;;20.50;62.10;;;;;;5076303;28;20214;-71
2022/05/08 13:12:16;;;;;;;5.60;4.60;;;20.50;62.00;;;;;;5094924;28;20564;-71
2022/05/08 13:14:41;;;;;;;4.85;4.45;;;20.50;62.10;;;;;;5060158;28;20220;-71
2022/05/08 13:17:07;;;;;;;4.60;4.20;;;20.50;62.10;;;;;;5076636;28;20243;-72
2022/05/08 13:19:35;;;;;;;4.68;4.28;;;20.50;62.00;;;;;;5060338;28;20280;-71